sensor_id;sensor_type;location;lat;lon;timestamp;P1;durP1;ratioP1;P2;durP2;ratioP2
40252;SDS011;25972;51.854;4.534;2023-05-14T00:01:37;15.88;;;7.30;;
40252;SDS011;25972;51.854;4.534;2023-05-14T00:04:03;16.17;;;7.70;;
40252;SDS011;25972;51.854;4.534;2023-05-14T00:06:29;16.52;;;7.10;;
40252;SDS011;25972;51.854;4.534;2023-05-14T00:08:56;13.93;;;7.10;;
40252;SDS011;25972;51.854;4.534;2023-05-14T00:11:21;15.25;;;7.60;;
40252;SDS011;25972;51.854;4.534;2023-05-14T00:13:48;16.60;;;7.57;;
40252;SDS011;25972;51.854;4.534;2023-05-14T00:16:14;15.88;;;7.70;;
40252;SDS011;25972;51.854;4.534;2023-05-14T00:18:40;15.95;;;8.35;;
40252;SDS011;25972;51.854;4.534;2023-05-14T00:21:05;14.38;;;7.43;;
40252;SDS011;25972;51.854;4.534;2023-05-14T00:23:31;16.27;;;7.85;;
40252;SDS011;25972;51.854;4.534;2023-05-14T00:25:57;14.85;;;8.05;;
40252;SDS011;25972;51.854;4.534;2023-05-14T00:28:23;18.13;;;8.63;;
40252;SDS011;25972;51.854;4.534;2023-05-14T00:30:49;14.15;;;7.32;;
40252;SDS011;25972;51.854;4.534;2023-05-14T00:33:15;12.80;;;7.03;;
40252;SDS011;25972;51.854;4.534;2023-05-14T00:35:41;16.20;;;7.68;;
40252;SDS011;25972;51.854;4.534;2023-05-14T00:38:07;11.82;;;6.45;;
40252;SDS011;25972;51.854;4.534;2023-05-14T00:40:33;12.45;;;6.78;;
40252;SDS011;25972;51.854;4.534;2023-05-14T00:42:59;16.52;;;7.40;;
40252;SDS011;25972;51.854;4.534;2023-05-14T00:45:25;13.95;;;6.78;;
40252;SDS011;25972;51.854;4.534;2023-05-14T00:47:51;15.80;;;7.30;;
40252;SDS011;25972;51.854;4.534;2023-05-14T00:50:18;14.52;;;6.70;;
40252;SDS011;25972;51.854;4.534;2023-05-14T00:52:47;16.30;;;7.03;;
40252;SDS011;25972;51.854;4.534;2023-05-14T00:55:13;14.93;;;6.80;;
40252;SDS011;25972;51.854;4.534;2023-05-14T00:57:41;13.07;;;7.05;;
40252;SDS011;25972;51.854;4.534;2023-05-14T01:00:07;12.70;;;6.88;;
40252;SDS011;25972;51.854;4.534;2023-05-14T01:02:34;13.23;;;6.85;;
40252;SDS011;25972;51.854;4.534;2023-05-14T01:04:59;14.80;;;6.55;;
40252;SDS011;25972;51.854;4.534;2023-05-14T01:07:36;11.85;;;6.57;;
40252;SDS011;25972;51.854;4.534;2023-05-14T01:10:41;17.88;;;7.32;;
40252;SDS011;25972;51.854;4.534;2023-05-14T01:13:25;11.98;;;6.22;;
40252;SDS011;25972;51.854;4.534;2023-05-14T01:15:57;13.68;;;6.30;;
40252;SDS011;25972;51.854;4.534;2023-05-14T01:18:24;14.02;;;7.00;;
40252;SDS011;25972;51.854;4.534;2023-05-14T01:20:52;13.20;;;7.07;;
40252;SDS011;25972;51.854;4.534;2023-05-14T01:23:18;16.25;;;6.85;;
40252;SDS011;25972;51.854;4.534;2023-05-14T01:25:44;14.40;;;6.88;;
40252;SDS011;25972;51.854;4.534;2023-05-14T01:28:17;14.25;;;6.47;;
40252;SDS011;25972;51.854;4.534;2023-05-14T01:30:56;16.27;;;7.47;;
40252;SDS011;25972;51.854;4.534;2023-05-14T01:33:26;13.82;;;6.95;;
40252;SDS011;25972;51.854;4.534;2023-05-14T01:35:55;13.05;;;6.82;;
40252;SDS011;25972;51.854;4.534;2023-05-14T01:38:22;15.43;;;7.13;;
40252;SDS011;25972;51.854;4.534;2023-05-14T01:40:49;17.13;;;7.47;;
40252;SDS011;25972;51.854;4.534;2023-05-14T01:43:16;16.23;;;6.75;;
40252;SDS011;25972;51.854;4.534;2023-05-14T01:45:44;17.50;;;7.28;;
40252;SDS011;25972;51.854;4.534;2023-05-14T01:48:10;14.48;;;7.25;;
40252;SDS011;25972;51.854;4.534;2023-05-14T01:50:35;15.55;;;7.32;;
40252;SDS011;25972;51.854;4.534;2023-05-14T01:53:01;14.98;;;6.68;;
40252;SDS011;25972;51.854;4.534;2023-05-14T01:55:27;12.05;;;6.53;;
40252;SDS011;25972;51.854;4.534;2023-05-14T01:57:53;14.63;;;6.38;;
40252;SDS011;25972;51.854;4.534;2023-05-14T02:00:19;15.65;;;6.32;;
40252;SDS011;25972;51.854;4.534;2023-05-14T02:02:48;14.35;;;7.03;;
40252;SDS011;25972;51.854;4.534;2023-05-14T02:05:14;12.52;;;7.00;;
40252;SDS011;25972;51.854;4.534;2023-05-14T02:07:40;12.98;;;6.63;;
40252;SDS011;25972;51.854;4.534;2023-05-14T02:10:07;15.82;;;6.75;;
40252;SDS011;25972;51.854;4.534;2023-05-14T02:12:33;13.35;;;6.93;;
40252;SDS011;25972;51.854;4.534;2023-05-14T02:14:59;15.32;;;6.88;;
40252;SDS011;25972;51.854;4.534;2023-05-14T02:17:26;12.52;;;6.53;;
40252;SDS011;25972;51.854;4.534;2023-05-14T02:19:52;11.88;;;6.20;;
40252;SDS011;25972;51.854;4.534;2023-05-14T02:22:18;14.38;;;7.07;;
40252;SDS011;25972;51.854;4.534;2023-05-14T02:24:44;15.57;;;6.47;;
40252;SDS011;25972;51.854;4.534;2023-05-14T02:27:10;14.77;;;6.93;;
40252;SDS011;25972;51.854;4.534;2023-05-14T02:29:37;13.80;;;6.75;;
40252;SDS011;25972;51.854;4.534;2023-05-14T02:32:03;16.63;;;6.90;;
40252;SDS011;25972;51.854;4.534;2023-05-14T02:34:29;18.92;;;7.50;;
40252;SDS011;25972;51.854;4.534;2023-05-14T02:36:57;14.50;;;6.80;;
40252;SDS011;25972;51.854;4.534;2023-05-14T02:39:23;16.75;;;6.63;;
40252;SDS011;25972;51.854;4.534;2023-05-14T02:41:49;18.80;;;7.25;;
40252;SDS011;25972;51.854;4.534;2023-05-14T02:44:15;14.57;;;6.53;;
40252;SDS011;25972;51.854;4.534;2023-05-14T02:46:41;13.63;;;6.70;;
40252;SDS011;25972;51.854;4.534;2023-05-14T02:49:07;16.88;;;6.78;;
40252;SDS011;25972;51.854;4.534;2023-05-14T02:51:33;16.92;;;7.63;;
40252;SDS011;25972;51.854;4.534;2023-05-14T02:53:59;16.38;;;7.18;;
40252;SDS011;25972;51.854;4.534;2023-05-14T02:56:25;12.80;;;6.28;;
40252;SDS011;25972;51.854;4.534;2023-05-14T02:58:51;15.65;;;7.38;;
40252;SDS011;25972;51.854;4.534;2023-05-14T03:01:17;14.32;;;6.55;;
40252;SDS011;25972;51.854;4.534;2023-05-14T03:03:43;14.52;;;6.90;;
40252;SDS011;25972;51.854;4.534;2023-05-14T03:06:09;16.52;;;6.47;;
40252;SDS011;25972;51.854;4.534;2023-05-14T03:08:35;15.48;;;7.00;;
40252;SDS011;25972;51.854;4.534;2023-05-14T03:11:01;15.45;;;6.95;;
40252;SDS011;25972;51.854;4.534;2023-05-14T03:13:27;14.25;;;6.63;;
40252;SDS011;25972;51.854;4.534;2023-05-14T03:15:53;15.23;;;7.13;;
40252;SDS011;25972;51.854;4.534;2023-05-14T03:18:19;13.77;;;6.57;;
40252;SDS011;25972;51.854;4.534;2023-05-14T03:20:45;12.82;;;6.70;;
40252;SDS011;25972;51.854;4.534;2023-05-14T03:23:11;15.57;;;6.13;;
40252;SDS011;25972;51.854;4.534;2023-05-14T03:25:38;14.98;;;6.60;;
40252;SDS011;25972;51.854;4.534;2023-05-14T03:28:04;13.23;;;6.70;;
40252;SDS011;25972;51.854;4.534;2023-05-14T03:30:31;14.93;;;7.00;;
40252;SDS011;25972;51.854;4.534;2023-05-14T03:32:59;16.73;;;6.95;;
40252;SDS011;25972;51.854;4.534;2023-05-14T03:35:25;16.17;;;7.13;;
40252;SDS011;25972;51.854;4.534;2023-05-14T03:37:51;15.50;;;6.82;;
40252;SDS011;25972;51.854;4.534;2023-05-14T03:40:18;17.20;;;7.15;;
40252;SDS011;25972;51.854;4.534;2023-05-14T03:42:43;16.15;;;6.65;;
40252;SDS011;25972;51.854;4.534;2023-05-14T03:45:09;16.02;;;6.90;;
40252;SDS011;25972;51.854;4.534;2023-05-14T03:47:35;16.05;;;6.78;;
40252;SDS011;25972;51.854;4.534;2023-05-14T03:50:01;20.13;;;7.35;;
40252;SDS011;25972;51.854;4.534;2023-05-14T03:52:28;16.60;;;7.18;;
40252;SDS011;25972;51.854;4.534;2023-05-14T03:54:53;15.73;;;7.32;;
40252;SDS011;25972;51.854;4.534;2023-05-14T03:57:19;14.45;;;7.38;;
40252;SDS011;25972;51.854;4.534;2023-05-14T03:59:45;16.75;;;7.40;;
40252;SDS011;25972;51.854;4.534;2023-05-14T04:02:11;19.65;;;7.47;;
40252;SDS011;25972;51.854;4.534;2023-05-14T04:04:37;15.23;;;7.47;;
40252;SDS011;25972;51.854;4.534;2023-05-14T04:07:03;17.17;;;7.82;;
40252;SDS011;25972;51.854;4.534;2023-05-14T04:09:29;17.55;;;7.70;;
40252;SDS011;25972;51.854;4.534;2023-05-14T04:11:55;16.67;;;7.55;;
40252;SDS011;25972;51.854;4.534;2023-05-14T04:14:21;17.52;;;8.00;;
40252;SDS011;25972;51.854;4.534;2023-05-14T04:16:47;17.92;;;8.25;;
40252;SDS011;25972;51.854;4.534;2023-05-14T04:19:12;14.18;;;6.93;;
40252;SDS011;25972;51.854;4.534;2023-05-14T04:21:38;15.55;;;7.68;;
40252;SDS011;25972;51.854;4.534;2023-05-14T04:24:04;18.52;;;8.00;;
40252;SDS011;25972;51.854;4.534;2023-05-14T04:26:30;19.27;;;7.68;;
40252;SDS011;25972;51.854;4.534;2023-05-14T04:28:56;18.75;;;7.28;;
40252;SDS011;25972;51.854;4.534;2023-05-14T04:31:25;15.82;;;8.13;;
40252;SDS011;25972;51.854;4.534;2023-05-14T04:33:51;15.88;;;7.35;;
40252;SDS011;25972;51.854;4.534;2023-05-14T04:36:16;19.00;;;7.40;;
40252;SDS011;25972;51.854;4.534;2023-05-14T04:38:42;15.75;;;7.65;;
40252;SDS011;25972;51.854;4.534;2023-05-14T04:41:08;15.68;;;7.25;;
40252;SDS011;25972;51.854;4.534;2023-05-14T04:43:34;14.02;;;7.22;;
40252;SDS011;25972;51.854;4.534;2023-05-14T04:45:59;15.27;;;7.47;;
40252;SDS011;25972;51.854;4.534;2023-05-14T04:48:26;15.75;;;6.47;;
40252;SDS011;25972;51.854;4.534;2023-05-14T04:50:51;19.65;;;7.90;;
40252;SDS011;25972;51.854;4.534;2023-05-14T04:53:17;18.20;;;6.43;;
40252;SDS011;25972;51.854;4.534;2023-05-14T04:55:43;18.38;;;7.20;;
40252;SDS011;25972;51.854;4.534;2023-05-14T04:58:09;14.45;;;6.75;;
40252;SDS011;25972;51.854;4.534;2023-05-14T05:00:35;12.70;;;6.53;;
40252;SDS011;25972;51.854;4.534;2023-05-14T05:03:01;14.18;;;6.13;;
40252;SDS011;25972;51.854;4.534;2023-05-14T05:05:27;14.15;;;6.80;;
40252;SDS011;25972;51.854;4.534;2023-05-14T05:07:53;13.43;;;7.00;;
40252;SDS011;25972;51.854;4.534;2023-05-14T05:10:19;16.05;;;7.13;;
40252;SDS011;25972;51.854;4.534;2023-05-14T05:12:45;15.60;;;6.72;;
40252;SDS011;25972;51.854;4.534;2023-05-14T05:15:10;14.02;;;6.95;;
40252;SDS011;25972;51.854;4.534;2023-05-14T05:17:36;16.08;;;7.50;;
40252;SDS011;25972;51.854;4.534;2023-05-14T05:20:02;15.63;;;7.70;;
40252;SDS011;25972;51.854;4.534;2023-05-14T05:22:29;13.35;;;6.95;;
40252;SDS011;25972;51.854;4.534;2023-05-14T05:24:55;15.15;;;7.28;;
40252;SDS011;25972;51.854;4.534;2023-05-14T05:27:22;16.15;;;7.40;;
40252;SDS011;25972;51.854;4.534;2023-05-14T05:29:48;17.88;;;7.25;;
40252;SDS011;25972;51.854;4.534;2023-05-14T05:32:14;17.02;;;6.80;;
40252;SDS011;25972;51.854;4.534;2023-05-14T05:34:40;19.05;;;7.97;;
40252;SDS011;25972;51.854;4.534;2023-05-14T05:37:06;16.02;;;7.35;;
40252;SDS011;25972;51.854;4.534;2023-05-14T05:39:33;17.42;;;7.80;;
40252;SDS011;25972;51.854;4.534;2023-05-14T05:41:59;16.10;;;7.32;;
40252;SDS011;25972;51.854;4.534;2023-05-14T05:44:26;17.52;;;8.32;;
40252;SDS011;25972;51.854;4.534;2023-05-14T05:46:52;18.50;;;8.43;;
40252;SDS011;25972;51.854;4.534;2023-05-14T05:49:21;16.63;;;8.20;;
40252;SDS011;25972;51.854;4.534;2023-05-14T05:51:46;16.33;;;7.85;;
40252;SDS011;25972;51.854;4.534;2023-05-14T05:54:12;15.35;;;7.43;;
40252;SDS011;25972;51.854;4.534;2023-05-14T05:56:38;14.30;;;6.90;;
40252;SDS011;25972;51.854;4.534;2023-05-14T05:59:04;15.02;;;7.25;;
40252;SDS011;25972;51.854;4.534;2023-05-14T06:01:29;13.40;;;6.43;;
40252;SDS011;25972;51.854;4.534;2023-05-14T06:03:55;17.35;;;6.95;;
40252;SDS011;25972;51.854;4.534;2023-05-14T06:06:21;16.05;;;6.90;;
40252;SDS011;25972;51.854;4.534;2023-05-14T06:08:47;14.23;;;7.07;;
40252;SDS011;25972;51.854;4.534;2023-05-14T06:11:13;16.77;;;7.88;;
40252;SDS011;25972;51.854;4.534;2023-05-14T06:13:39;14.18;;;7.03;;
40252;SDS011;25972;51.854;4.534;2023-05-14T06:16:05;14.07;;;6.70;;
40252;SDS011;25972;51.854;4.534;2023-05-14T06:18:31;16.58;;;7.78;;
40252;SDS011;25972;51.854;4.534;2023-05-14T06:20:57;14.85;;;7.47;;
40252;SDS011;25972;51.854;4.534;2023-05-14T06:23:24;16.88;;;7.78;;
40252;SDS011;25972;51.854;4.534;2023-05-14T06:25:50;17.33;;;7.43;;
40252;SDS011;25972;51.854;4.534;2023-05-14T06:28:16;14.80;;;7.85;;
40252;SDS011;25972;51.854;4.534;2023-05-14T06:30:42;17.60;;;7.85;;
40252;SDS011;25972;51.854;4.534;2023-05-14T06:33:08;17.77;;;8.27;;
40252;SDS011;25972;51.854;4.534;2023-05-14T06:35:34;15.13;;;7.75;;
40252;SDS011;25972;51.854;4.534;2023-05-14T06:38:01;15.60;;;7.68;;
40252;SDS011;25972;51.854;4.534;2023-05-14T06:40:27;14.88;;;7.32;;
40252;SDS011;25972;51.854;4.534;2023-05-14T06:42:52;17.50;;;8.27;;
40252;SDS011;25972;51.854;4.534;2023-05-14T06:45:19;18.35;;;7.82;;
40252;SDS011;25972;51.854;4.534;2023-05-14T06:47:45;16.05;;;8.48;;
40252;SDS011;25972;51.854;4.534;2023-05-14T06:50:11;18.05;;;9.07;;
40252;SDS011;25972;51.854;4.534;2023-05-14T06:52:37;15.50;;;7.57;;
40252;SDS011;25972;51.854;4.534;2023-05-14T06:55:03;17.58;;;8.18;;
40252;SDS011;25972;51.854;4.534;2023-05-14T06:57:29;19.13;;;8.65;;
40252;SDS011;25972;51.854;4.534;2023-05-14T06:59:55;18.90;;;8.93;;
40252;SDS011;25972;51.854;4.534;2023-05-14T07:02:21;17.27;;;7.65;;
40252;SDS011;25972;51.854;4.534;2023-05-14T07:04:47;17.55;;;8.90;;
40252;SDS011;25972;51.854;4.534;2023-05-14T07:07:13;18.75;;;9.18;;
40252;SDS011;25972;51.854;4.534;2023-05-14T07:09:42;17.48;;;8.75;;
40252;SDS011;25972;51.854;4.534;2023-05-14T07:12:08;19.83;;;9.40;;
40252;SDS011;25972;51.854;4.534;2023-05-14T07:14:33;18.73;;;9.27;;
40252;SDS011;25972;51.854;4.534;2023-05-14T07:16:59;19.23;;;9.05;;
40252;SDS011;25972;51.854;4.534;2023-05-14T07:19:25;19.17;;;9.57;;
40252;SDS011;25972;51.854;4.534;2023-05-14T07:21:52;16.75;;;8.93;;
40252;SDS011;25972;51.854;4.534;2023-05-14T07:24:21;24.00;;;9.75;;
40252;SDS011;25972;51.854;4.534;2023-05-14T07:26:47;17.67;;;9.20;;
40252;SDS011;25972;51.854;4.534;2023-05-14T07:29:13;20.83;;;9.38;;
40252;SDS011;25972;51.854;4.534;2023-05-14T07:31:39;17.45;;;9.20;;
40252;SDS011;25972;51.854;4.534;2023-05-14T07:34:05;16.23;;;8.77;;
40252;SDS011;25972;51.854;4.534;2023-05-14T07:36:32;18.13;;;9.95;;
40252;SDS011;25972;51.854;4.534;2023-05-14T07:38:58;18.67;;;9.27;;
40252;SDS011;25972;51.854;4.534;2023-05-14T07:41:24;17.13;;;8.98;;
40252;SDS011;25972;51.854;4.534;2023-05-14T07:43:50;18.02;;;8.82;;
40252;SDS011;25972;51.854;4.534;2023-05-14T07:46:16;14.13;;;8.00;;
40252;SDS011;25972;51.854;4.534;2023-05-14T07:48:42;15.35;;;8.32;;
40252;SDS011;25972;51.854;4.534;2023-05-14T07:51:08;14.40;;;8.18;;
40252;SDS011;25972;51.854;4.534;2023-05-14T07:53:34;15.48;;;8.05;;
40252;SDS011;25972;51.854;4.534;2023-05-14T07:56:00;16.85;;;8.50;;
40252;SDS011;25972;51.854;4.534;2023-05-14T07:58:26;13.55;;;6.85;;
40252;SDS011;25972;51.854;4.534;2023-05-14T08:00:53;14.35;;;7.35;;
40252;SDS011;25972;51.854;4.534;2023-05-14T08:03:19;16.35;;;6.70;;
40252;SDS011;25972;51.854;4.534;2023-05-14T08:05:44;13.48;;;7.25;;
40252;SDS011;25972;51.854;4.534;2023-05-14T08:08:10;13.00;;;6.72;;
40252;SDS011;25972;51.854;4.534;2023-05-14T08:10:36;11.65;;;6.57;;
40252;SDS011;25972;51.854;4.534;2023-05-14T08:13:02;11.82;;;6.22;;
40252;SDS011;25972;51.854;4.534;2023-05-14T08:15:28;15.10;;;6.43;;
40252;SDS011;25972;51.854;4.534;2023-05-14T08:17:54;11.88;;;5.82;;
40252;SDS011;25972;51.854;4.534;2023-05-14T08:20:20;11.07;;;6.00;;
40252;SDS011;25972;51.854;4.534;2023-05-14T08:22:46;12.70;;;6.45;;
40252;SDS011;25972;51.854;4.534;2023-05-14T08:25:12;12.55;;;6.00;;
40252;SDS011;25972;51.854;4.534;2023-05-14T08:27:38;12.32;;;6.97;;
40252;SDS011;25972;51.854;4.534;2023-05-14T08:30:04;11.27;;;6.05;;
40252;SDS011;25972;51.854;4.534;2023-05-14T08:32:30;9.95;;;5.35;;
40252;SDS011;25972;51.854;4.534;2023-05-14T08:34:56;10.88;;;6.28;;
40252;SDS011;25972;51.854;4.534;2023-05-14T08:37:22;10.98;;;5.45;;
40252;SDS011;25972;51.854;4.534;2023-05-14T08:39:48;9.10;;;4.93;;
40252;SDS011;25972;51.854;4.534;2023-05-14T08:42:13;9.52;;;5.43;;
40252;SDS011;25972;51.854;4.534;2023-05-14T08:44:46;13.15;;;5.85;;
40252;SDS011;25972;51.854;4.534;2023-05-14T08:47:14;8.98;;;5.30;;
40252;SDS011;25972;51.854;4.534;2023-05-14T08:49:42;11.48;;;5.53;;
40252;SDS011;25972;51.854;4.534;2023-05-14T08:52:10;9.20;;;4.93;;
40252;SDS011;25972;51.854;4.534;2023-05-14T08:54:37;8.32;;;4.75;;
40252;SDS011;25972;51.854;4.534;2023-05-14T08:57:03;12.82;;;4.82;;
40252;SDS011;25972;51.854;4.534;2023-05-14T08:59:30;8.30;;;4.18;;
40252;SDS011;25972;51.854;4.534;2023-05-14T09:01:57;7.28;;;4.18;;
40252;SDS011;25972;51.854;4.534;2023-05-14T09:04:25;8.57;;;4.43;;
40252;SDS011;25972;51.854;4.534;2023-05-14T09:06:52;10.10;;;5.20;;
40252;SDS011;25972;51.854;4.534;2023-05-14T09:09:19;9.23;;;4.47;;
40252;SDS011;25972;51.854;4.534;2023-05-14T09:11:47;9.57;;;4.68;;
40252;SDS011;25972;51.854;4.534;2023-05-14T09:14:14;9.40;;;4.75;;
40252;SDS011;25972;51.854;4.534;2023-05-14T09:16:40;8.82;;;4.88;;
40252;SDS011;25972;51.854;4.534;2023-05-14T09:19:10;7.80;;;4.35;;
40252;SDS011;25972;51.854;4.534;2023-05-14T09:21:37;8.07;;;4.45;;
40252;SDS011;25972;51.854;4.534;2023-05-14T09:24:04;8.68;;;4.20;;
40252;SDS011;25972;51.854;4.534;2023-05-14T09:26:31;6.70;;;3.90;;
40252;SDS011;25972;51.854;4.534;2023-05-14T09:28:58;8.10;;;3.90;;
40252;SDS011;25972;51.854;4.534;2023-05-14T09:31:29;7.07;;;3.70;;
40252;SDS011;25972;51.854;4.534;2023-05-14T09:33:57;8.15;;;3.78;;
40252;SDS011;25972;51.854;4.534;2023-05-14T09:36:24;8.93;;;4.20;;
40252;SDS011;25972;51.854;4.534;2023-05-14T09:38:56;9.65;;;3.92;;
40252;SDS011;25972;51.854;4.534;2023-05-14T09:41:23;7.60;;;4.10;;
40252;SDS011;25972;51.854;4.534;2023-05-14T09:43:49;7.85;;;3.50;;
40252;SDS011;25972;51.854;4.534;2023-05-14T09:46:15;6.28;;;3.20;;
40252;SDS011;25972;51.854;4.534;2023-05-14T09:48:44;7.95;;;3.00;;
40252;SDS011;25972;51.854;4.534;2023-05-14T09:51:10;7.03;;;3.28;;
40252;SDS011;25972;51.854;4.534;2023-05-14T09:53:37;9.32;;;3.63;;
40252;SDS011;25972;51.854;4.534;2023-05-14T09:56:03;10.32;;;3.20;;
40252;SDS011;25972;51.854;4.534;2023-05-14T09:58:29;6.80;;;3.38;;
40252;SDS011;25972;51.854;4.534;2023-05-14T10:00:56;7.72;;;3.40;;
40252;SDS011;25972;51.854;4.534;2023-05-14T10:03:23;4.47;;;2.63;;
40252;SDS011;25972;51.854;4.534;2023-05-14T10:05:52;7.75;;;2.95;;
40252;SDS011;25972;51.854;4.534;2023-05-14T10:08:26;6.32;;;2.95;;
40252;SDS011;25972;51.854;4.534;2023-05-14T10:11:02;7.63;;;3.00;;
40252;SDS011;25972;51.854;4.534;2023-05-14T10:13:36;4.82;;;2.90;;
40252;SDS011;25972;51.854;4.534;2023-05-14T10:16:20;5.53;;;3.33;;
40252;SDS011;25972;51.854;4.534;2023-05-14T10:18:55;8.50;;;3.30;;
40252;SDS011;25972;51.854;4.534;2023-05-14T10:21:26;4.88;;;2.80;;
40252;SDS011;25972;51.854;4.534;2023-05-14T10:23:55;8.05;;;3.10;;
40252;SDS011;25972;51.854;4.534;2023-05-14T10:26:22;10.32;;;3.50;;
40252;SDS011;25972;51.854;4.534;2023-05-14T10:28:48;5.80;;;2.65;;
40252;SDS011;25972;51.854;4.534;2023-05-14T10:31:14;5.13;;;2.80;;
40252;SDS011;25972;51.854;4.534;2023-05-14T10:33:50;8.35;;;3.25;;
40252;SDS011;25972;51.854;4.534;2023-05-14T10:36:17;6.78;;;2.97;;
40252;SDS011;25972;51.854;4.534;2023-05-14T10:38:43;5.75;;;2.92;;
40252;SDS011;25972;51.854;4.534;2023-05-14T10:41:10;7.22;;;2.92;;
40252;SDS011;25972;51.854;4.534;2023-05-14T10:43:38;7.90;;;3.10;;
40252;SDS011;25972;51.854;4.534;2023-05-14T10:46:06;6.43;;;3.20;;
40252;SDS011;25972;51.854;4.534;2023-05-14T10:48:33;7.88;;;2.95;;
40252;SDS011;25972;51.854;4.534;2023-05-14T10:51:01;6.80;;;3.25;;
40252;SDS011;25972;51.854;4.534;2023-05-14T10:53:33;10.93;;;4.00;;
40252;SDS011;25972;51.854;4.534;2023-05-14T10:56:05;5.57;;;2.55;;
40252;SDS011;25972;51.854;4.534;2023-05-14T10:58:50;8.68;;;3.17;;
40252;SDS011;25972;51.854;4.534;2023-05-14T11:01:16;8.23;;;3.00;;
40252;SDS011;25972;51.854;4.534;2023-05-14T11:03:45;5.85;;;2.90;;
40252;SDS011;25972;51.854;4.534;2023-05-14T11:06:12;8.60;;;2.95;;
40252;SDS011;25972;51.854;4.534;2023-05-14T11:08:39;6.57;;;3.20;;
40252;SDS011;25972;51.854;4.534;2023-05-14T11:11:05;5.78;;;2.70;;
40252;SDS011;25972;51.854;4.534;2023-05-14T11:13:33;5.65;;;2.85;;
40252;SDS011;25972;51.854;4.534;2023-05-14T11:16:00;7.10;;;2.92;;
40252;SDS011;25972;51.854;4.534;2023-05-14T11:20:56;5.65;;;2.90;;
40252;SDS011;25972;51.854;4.534;2023-05-14T11:23:23;8.35;;;3.22;;
40252;SDS011;25972;51.854;4.534;2023-05-14T11:25:53;6.90;;;2.75;;
40252;SDS011;25972;51.854;4.534;2023-05-14T11:28:20;8.98;;;3.13;;
40252;SDS011;25972;51.854;4.534;2023-05-14T11:30:47;5.43;;;3.00;;
40252;SDS011;25972;51.854;4.534;2023-05-14T11:33:13;6.43;;;2.88;;
40252;SDS011;25972;51.854;4.534;2023-05-14T11:35:42;5.55;;;3.22;;
40252;SDS011;25972;51.854;4.534;2023-05-14T11:38:19;9.55;;;3.30;;
40252;SDS011;25972;51.854;4.534;2023-05-14T11:40:53;8.93;;;4.10;;
40252;SDS011;25972;51.854;4.534;2023-05-14T11:43:20;8.48;;;3.90;;
40252;SDS011;25972;51.854;4.534;2023-05-14T11:45:52;8.18;;;3.70;;
40252;SDS011;25972;51.854;4.534;2023-05-14T11:48:19;8.23;;;3.97;;
40252;SDS011;25972;51.854;4.534;2023-05-14T11:50:50;8.80;;;3.35;;
40252;SDS011;25972;51.854;4.534;2023-05-14T11:53:17;9.23;;;3.50;;
40252;SDS011;25972;51.854;4.534;2023-05-14T11:55:49;7.32;;;3.40;;
40252;SDS011;25972;51.854;4.534;2023-05-14T11:58:18;10.30;;;3.22;;
40252;SDS011;25972;51.854;4.534;2023-05-14T12:00:44;8.23;;;3.65;;
40252;SDS011;25972;51.854;4.534;2023-05-14T12:03:11;6.95;;;3.10;;
40252;SDS011;25972;51.854;4.534;2023-05-14T12:05:37;9.60;;;3.63;;
40252;SDS011;25972;51.854;4.534;2023-05-14T12:08:26;11.38;;;3.35;;
40252;SDS011;25972;51.854;4.534;2023-05-14T12:10:52;7.38;;;3.60;;
40252;SDS011;25972;51.854;4.534;2023-05-14T12:13:18;9.50;;;3.67;;
40252;SDS011;25972;51.854;4.534;2023-05-14T12:15:52;6.60;;;3.40;;
40252;SDS011;25972;51.854;4.534;2023-05-14T12:18:20;7.95;;;3.20;;
40252;SDS011;25972;51.854;4.534;2023-05-14T12:20:47;9.32;;;4.15;;
40252;SDS011;25972;51.854;4.534;2023-05-14T12:23:13;9.25;;;4.82;;
40252;SDS011;25972;51.854;4.534;2023-05-14T12:25:40;9.38;;;3.80;;
40252;SDS011;25972;51.854;4.534;2023-05-14T12:28:14;9.13;;;3.95;;
40252;SDS011;25972;51.854;4.534;2023-05-14T12:30:42;8.73;;;3.40;;
40252;SDS011;25972;51.854;4.534;2023-05-14T12:33:08;9.63;;;3.60;;
40252;SDS011;25972;51.854;4.534;2023-05-14T12:35:34;6.97;;;3.33;;
40252;SDS011;25972;51.854;4.534;2023-05-14T12:38:01;7.68;;;3.10;;
40252;SDS011;25972;51.854;4.534;2023-05-14T12:40:27;9.40;;;3.55;;
40252;SDS011;25972;51.854;4.534;2023-05-14T12:42:53;9.38;;;4.00;;
40252;SDS011;25972;51.854;4.534;2023-05-14T12:45:19;8.40;;;3.63;;
40252;SDS011;25972;51.854;4.534;2023-05-14T12:47:45;7.40;;;3.65;;
40252;SDS011;25972;51.854;4.534;2023-05-14T12:50:11;7.35;;;3.50;;
40252;SDS011;25972;51.854;4.534;2023-05-14T12:52:37;8.77;;;3.75;;
40252;SDS011;25972;51.854;4.534;2023-05-14T12:55:03;5.78;;;3.03;;
40252;SDS011;25972;51.854;4.534;2023-05-14T12:57:29;7.47;;;2.67;;
40252;SDS011;25972;51.854;4.534;2023-05-14T12:59:55;7.78;;;3.15;;
40252;SDS011;25972;51.854;4.534;2023-05-14T13:02:23;6.80;;;3.03;;
40252;SDS011;25972;51.854;4.534;2023-05-14T13:04:49;8.10;;;3.22;;
40252;SDS011;25972;51.854;4.534;2023-05-14T13:07:15;4.88;;;3.35;;
40252;SDS011;25972;51.854;4.534;2023-05-14T13:09:43;6.70;;;3.13;;
40252;SDS011;25972;51.854;4.534;2023-05-14T13:12:09;6.97;;;3.35;;
40252;SDS011;25972;51.854;4.534;2023-05-14T13:14:35;7.70;;;2.90;;
40252;SDS011;25972;51.854;4.534;2023-05-14T13:17:02;9.93;;;3.78;;
40252;SDS011;25972;51.854;4.534;2023-05-14T13:19:28;6.00;;;3.33;;
40252;SDS011;25972;51.854;4.534;2023-05-14T13:21:55;6.07;;;2.95;;
40252;SDS011;25972;51.854;4.534;2023-05-14T13:24:23;6.43;;;3.25;;
40252;SDS011;25972;51.854;4.534;2023-05-14T13:26:49;7.70;;;2.88;;
40252;SDS011;25972;51.854;4.534;2023-05-14T13:29:15;6.60;;;2.95;;
40252;SDS011;25972;51.854;4.534;2023-05-14T13:31:43;7.85;;;3.35;;
40252;SDS011;25972;51.854;4.534;2023-05-14T13:34:09;6.20;;;2.58;;
40252;SDS011;25972;51.854;4.534;2023-05-14T13:36:35;6.75;;;3.03;;
40252;SDS011;25972;51.854;4.534;2023-05-14T13:39:05;13.25;;;3.45;;
40252;SDS011;25972;51.854;4.534;2023-05-14T13:41:31;7.00;;;3.00;;
40252;SDS011;25972;51.854;4.534;2023-05-14T13:44:02;6.97;;;2.72;;
40252;SDS011;25972;51.854;4.534;2023-05-14T13:46:28;5.72;;;2.50;;
40252;SDS011;25972;51.854;4.534;2023-05-14T13:48:54;6.30;;;2.80;;
40252;SDS011;25972;51.854;4.534;2023-05-14T13:51:21;5.10;;;2.80;;
40252;SDS011;25972;51.854;4.534;2023-05-14T13:53:48;6.72;;;2.55;;
40252;SDS011;25972;51.854;4.534;2023-05-14T13:56:14;6.32;;;3.20;;
40252;SDS011;25972;51.854;4.534;2023-05-14T13:58:40;5.85;;;2.65;;
40252;SDS011;25972;51.854;4.534;2023-05-14T14:01:06;6.45;;;3.13;;
40252;SDS011;25972;51.854;4.534;2023-05-14T14:03:32;9.07;;;3.08;;
40252;SDS011;25972;51.854;4.534;2023-05-14T14:05:58;8.75;;;3.05;;
40252;SDS011;25972;51.854;4.534;2023-05-14T14:08:30;5.72;;;3.20;;
40252;SDS011;25972;51.854;4.534;2023-05-14T14:10:57;5.17;;;2.73;;
40252;SDS011;25972;51.854;4.534;2023-05-14T14:13:23;7.80;;;3.22;;
40252;SDS011;25972;51.854;4.534;2023-05-14T14:15:49;6.78;;;3.00;;
40252;SDS011;25972;51.854;4.534;2023-05-14T14:18:15;6.68;;;3.30;;
40252;SDS011;25972;51.854;4.534;2023-05-14T14:20:41;7.72;;;2.85;;
40252;SDS011;25972;51.854;4.534;2023-05-14T14:23:07;9.25;;;3.10;;
40252;SDS011;25972;51.854;4.534;2023-05-14T14:25:33;7.40;;;3.35;;
40252;SDS011;25972;51.854;4.534;2023-05-14T14:27:59;5.65;;;3.33;;
40252;SDS011;25972;51.854;4.534;2023-05-14T14:30:27;7.70;;;3.30;;
40252;SDS011;25972;51.854;4.534;2023-05-14T14:32:53;7.07;;;2.90;;
40252;SDS011;25972;51.854;4.534;2023-05-14T14:35:19;7.57;;;3.20;;
40252;SDS011;25972;51.854;4.534;2023-05-14T14:37:48;8.32;;;3.95;;
40252;SDS011;25972;51.854;4.534;2023-05-14T14:40:15;7.60;;;3.65;;
40252;SDS011;25972;51.854;4.534;2023-05-14T14:42:41;7.35;;;3.20;;